AGROMETEOROLOŠKI PORTAL

vinorodna pokrajina

Temelj dobrega kmetovanja

Pregled podatkov za lokacijo LOGATEC - ARSO, meteorološka postaja 159

Pregled senzorjev na lokaciji

ID Ime Zadnja
vrednost
Datum in čas
meritve
(lokalni čas)
Tip
senzorja
6014 Padavine (mm) 0 mm 30.9.2022 11:00 ARSO
6016 Relativna zračna vlaga (2 m) (% RH) 88 % RH 30.9.2022 11:00 ARSO
6015 Temperatura (2 m) (°C) 12,6 °C 30.9.2022 11:00 ARSO

Pregled podatkov zadnjih 24 ur

Zap.
št.
Datum in čas
(lokalni čas)
LOGATEC - ARSO
Padavine Relativna
zračna
vlaga
(2
m)
Temperatura
(2
m)
1 30.9.2022 11:00 0 87,7 12,6
2 30.9.2022 10:30 0 89,3 12
3 30.9.2022 10:00 0 91 11,7
4 30.9.2022 09:30 0 94,3 11
5 30.9.2022 09:00 0 96 10,7
6 30.9.2022 08:30 0 97 10,4
7 30.9.2022 08:00 0 97 10,1
8 30.9.2022 07:30 0 96,7 9,8
9 30.9.2022 07:00 0,1 96,3 10,1
10 30.9.2022 06:30 0,3 97 10,1
11 30.9.2022 06:00 0,8 96,3 10,2
12 30.9.2022 05:30 2,3 96,3 10,2
13 30.9.2022 05:00 0,5 97 10
14 30.9.2022 04:30 0,9 97 10
15 30.9.2022 04:00 1 97 10,1
16 30.9.2022 03:30 0,7 97 10,2
17 30.9.2022 03:00 3,7 97 10,3
18 30.9.2022 02:30 0,8 97 10,3
19 30.9.2022 02:00 0 97 10,3
20 30.9.2022 01:30 1,3 97,3 10,2
21 30.9.2022 01:00 0,7 98 10,2
22 30.9.2022 00:30 0 98 10,2
23 30.9.2022 00:00 0 98 10,2
24 29.9.2022 23:30 0 97 10,2
25 29.9.2022 23:00 0 97 10,2
26 29.9.2022 22:30 0 97 10,3
27 29.9.2022 22:00 0 97 10,4
28 29.9.2022 21:30 0 96,7 10,4
29 29.9.2022 21:00 0 96 10,2
30 29.9.2022 20:30 0 96 10,2
31 29.9.2022 20:00 0 96 10,1
32 29.9.2022 19:30 0 96 10,2
33 29.9.2022 19:00 0,9 95,7 10,2
34 29.9.2022 18:30 0 95 10,4
35 29.9.2022 18:00 3,7 95 10,6
36 29.9.2022 17:30 2,2 95 10,7
37 29.9.2022 17:00 1,1 95 10,8
38 29.9.2022 16:30 0 95 11,1
39 29.9.2022 16:00 0,7 95,3 11,1
40 29.9.2022 15:30 7,2 95,7 11,2
41 29.9.2022 15:00 1,7 96 11,5
42 29.9.2022 14:30 0,1 96 12
43 29.9.2022 14:00 1,3 96 12
44 29.9.2022 13:30 5,1 96 11,9
45 29.9.2022 13:00 0,6 96 12